Terminal Aerodrome Forecast
Issued by NWS

Home | Current Version | Previous Version | Text Only | Print | Product List | Glossary On
Versions: 1 2 3 4 5 6 7 8 9 10 11 12 13 14 15
973
FTUS45 KTFX 101123
TAFLWT
TAF
KLWT 101123Z 1012/1112 12007KT P6SM OVC080
     FM101800 14004KT 4SM -SN OVC015
     FM110000 29005KT P6SM BKN025
     FM110600 27006KT P6SM BKN045
     FM110700 26006KT P6SM SCT050=

USA.gov is the U.S. government's official web portal to all federal, state and local government web resources and services.